This is the latest recevied weather packets stored in our database for station/object OK1ZDJ-13. If no packets are shown the sender has not sent any weather packets the latest 10 day(s).
| Time | Temp. | Humidity | Pressure | Rain* | Wind** | Luminosity | Snow |
|---|---|---|---|---|---|---|---|
| 1777699067 | 7.22° C | 78% | 1027.3 hPa | - | - | - | - |
| 1777698467 | 4.44° C | 86% | 1027.2 hPa | - | - | - | - |
| 1777697867 | 3.33° C | 85% | 1027.2 hPa | - | - | - | - |
| 1777697267 | 3.33° C | 86% | 1027.2 hPa | - | - | - | - |
| 1777696667 | 2.78° C | 84% | 1027.2 hPa | - | - | - | - |
| 1777695468 | 2.78° C | 82% | 1027.3 hPa | - | - | - | - |
| 1777694867 | 2.22° C | 81% | 1027.2 hPa | - | - | - | - |
| 1777693667 | 2.78° C | 82% | 1027.2 hPa | - | - | - | - |
| 1777693072 | 2.78° C | 80% | 1027.2 hPa | - | - | - | - |
| 1777692466 | 2.78° C | 80% | 1027.1 hPa | - | - | - | - |
| 1777691866 | 2.78° C | 80% | 1027.2 hPa | - | - | - | - |
| 1777690666 | 3.33° C | 83% | 1027.2 hPa | - | - | - | - |
| 1777690066 | 3.33° C | 83% | 1027.2 hPa | - | - | - | - |
| 1777689466 | 3.33° C | 81% | 1027.3 hPa | - | - | - | - |
| 1777688866 | 3.33° C | 81% | 1027.3 hPa | - | - | - | - |
| 1777688266 | 3.33° C | 81% | 1027.3 hPa | - | - | - | - |
| 1777687666 | 3.33° C | 79% | 1027.2 hPa | - | - | - | - |
| 1777687066 | 3.89° C | 79% | 1027.3 hPa | - | - | - | - |
| 1777686466 | 3.89° C | 79% | 1027.3 hPa | - | - | - | - |
| 1777685866 | 3.89° C | 79% | 1027.2 hPa | - | - | - | - |
| 1777685266 | 3.89° C | 80% | 1027.2 hPa | - | - | - | - |
| 1777684666 | 3.89° C | 78% | 1027.3 hPa | - | - | - | - |
| 1777683466 | 4.44° C | 76% | 1027.3 hPa | - | - | - | - |
| 1777682866 | 4.44° C | 75% | 1027.3 hPa | - | - | - | - |
| 1777682266 | 5° C | 75% | 1027.3 hPa | - | - | - | - |
* Rain since midnight (hover to see other rain measurements)
** Current wind speed in m/s (hover to see current wind gust speed)